Redbird, Oklahoma
Current Conditions -  °F | °C
As of 10:53 AM on Saturday 25 Oct 2014 (Local Time) from KMKO Reporting Station
Clear Clear  
Wind Chill: 75°   Ceiling: Unl
Heat Index: 75°   Visibility: 10mi
Dew Point: 62°   Wind: 7mph
Humidity: 64%   Direction: 200°SSW
Pressure: 30.12"   Gusts: NA
Location:  35.89°N, 95.59°W
Report Text: KMKO 251553Z AUTO 20006KT 10SM CLR 24/17 A3012 RMK AO2 SLP193 T02390167
Loading
Personal Weather Stations






























Interactive Weather Map New forecast layout! Learn more

10-Day Weather Forecast

Advertisements
Track Severe Weather on mobile